Atlantic - Newfoundland: Past 24 Hour Conditions

 

Charlottetown Airport

08:00 PM AST 26 February 2015
Disclaimer

This table is a summary of hourly weather conditions for the past 24 hours.
Please note that these observations might not always be representative of weather conditions over their associated marine area.

Date / Time
(AST)
Wind(knots) Conditions Visibility(km) Pressure(kPa) Air tempC) Relative humidity(%) Dew pointC) Wind Chill
26 February 2015
20:00 NW 2 Cloudy 24 101.5 -11 66 -17 -14
19:00 WNW 3 Cloudy 24 101.5 -11 63 -17 -14
18:00 WNW 3 Cloudy 24 101.5 -11 61 -17 -14
17:00 W 8 Cloudy 24 101.5 -11 55 -18 -17
16:00 W 7 Cloudy 24 101.5 -10 56 -18 -17
15:00 W 8 Cloudy 24 101.5 -10 52 -18 -17
14:00 W 8 Mostly Cloudy 24 101.5 -10 56 -17 -17
13:00 WSW 12 gust 19 Mostly Cloudy 24 101.5 -11 57 -18 -19
12:00 WSW 13 Mostly Cloudy 24 101.5 -11 65 -16 -20
11:00 WSW 14 gust 19 Drifting Snow 24 101.6 -11 66 -16 -20
10:00 W 13 gust 20 Drifting Snow 24 101.5 -10 66 -15 -19
9:00 WSW 15 gust 20 Drifting Snow 24 101.4 -10 68 -15 -20
8:00 WSW 13 gust 20 Drifting Snow 24 101.3 -10 71 -15 -19
7:00 WSW 12 gust 19 Drifting Snow 24 101.2 -10 73 -14 -19
6:00 WSW 9 gust 18 Drifting Snow 24 101.0 -10 75 -14 -17
5:00 WSW 11 Drifting Snow 24 100.9 -10 74 -13 -17
4:00 WSW 11 gust 20 Drifting Snow 24 100.8 -9 74 -13 -17
3:00 WSW 17 gust 25 Drifting Snow 24 100.7 -9 72 -13 -18
2:00 W 13 gust 23 Drifting Snow 24 100.6 -9 72 -13 -17
1:00 W 18 gust 26 Drifting Snow 24 100.4 -8 71 -12 -17
0:00 W 14 gust 23 Drifting Snow 24 100.2 -8 76 -11 -16
25 February 2015
23:00 W 19 gust 32 Blowing Snow 16 100.1 -7 80 -10 -16
22:00 W 15 gust 29 Light Snowshower 5 99.9 -6 85 -8 -14
21:00 WSW 18 gust 34 Light Snowshower 10 99.7 -6 86 -8 -15
20:00 WSW 23 gust 35 Light Snowshower 2 99.5 -5 87 -7 -14

Zoom-in to make a selection

Map of Atlantic - Newfoundland marine weather areas Southwestern Grand Banks - 44138 Banquereau - 44139 Tail of the Bank - 44140 Nickerson Bank - 44251 Northeast Burgeo Bank - 44255 Blanc-Sablon Airport Cap Whittle Chevery Natashquan Airport Heath Point Miscou Island Grand Étang Ingonish Beach North Mountain St.Paul Island J.A. Douglas McCurdy Sydney Airport Charlottetown Airport East Point North Cape Argentia Bonavista Burgeo Cape Race Corner Brook Daniel's Harbour Englee Ferolle Point La Scie Port aux Basques Rocky Harbour Sagona Island St. Anthony Airport St. John's Int'l Airport St. Lawrence Stephenville Airport Twillingate Winterland Wreckhouse Cartwright Airport Mary's Harbour Grates Cove Pool's Island Marticot Island Long Pond Îles de la Madeleine Airport
Legend:
buoy Buoy
land station Land Station

Atlantic - Newfoundland Area

Another Region

What we are doing

Date modified: